Terminal Aerodrome Forecast
Issued by NWS Sterling, VA

Home | Current Version | Previous Version | Text Only | Print | Product List | Glossary On
Versions: 1 2 3 4 5 6 7 8 9 10 11 12 13 14 15 16 17 18 19 20 21 22
000
FTUS41 KLWX 250900 AAA
TAFDCA
TAF AMD
KDCA 250904Z 2509/2606 25004KT P6SM FEW140 BKN200
     FM252100 00000KT P6SM OVC090
     FM260000 04006KT P6SM OVC090
     FM260300 05007KT 6SM -SN OVC090=

USA.gov is the U.S. government's official web portal to all federal, state and local government web resources and services.